createdAt,value
2018-12-15T00:00:08.528Z,34.40
2018-12-15T00:01:08.553Z,33.40
2018-12-15T00:02:08.575Z,31.40
2018-12-15T00:03:08.598Z,35.60
2018-12-15T00:04:08.624Z,33.20
2018-12-15T00:05:08.648Z,31.20
2018-12-15T00:06:08.714Z,37.20
2018-12-15T00:07:08.696Z,32.20
2018-12-15T00:08:08.723Z,35.00
2018-12-15T00:09:08.746Z,34.50
2018-12-15T00:10:08.769Z,32.80
2018-12-15T00:11:08.791Z,33.30
2018-12-15T00:12:08.815Z,33.10
2018-12-15T00:13:08.838Z,32.30
2018-12-15T00:14:08.863Z,34.00
2018-12-15T00:15:08.888Z,33.60
2018-12-15T00:16:08.913Z,35.20
2018-12-15T00:17:08.935Z,33.90
2018-12-15T00:18:08.959Z,34.50
2018-12-15T00:19:08.982Z,34.10
2018-12-15T00:20:09.009Z,32.70
2018-12-15T00:21:09.032Z,33.00
2018-12-15T00:22:09.056Z,35.60
2018-12-15T00:23:09.079Z,31.90
2018-12-15T00:24:09.107Z,30.80
2018-12-15T00:25:09.127Z,36.30
2018-12-15T00:26:09.152Z,37.90
2018-12-15T00:27:09.175Z,38.30
2018-12-15T00:28:09.200Z,32.00
2018-12-15T00:29:09.223Z,35.00
2018-12-15T00:30:09.248Z,37.10
2018-12-15T00:31:09.273Z,32.60
2018-12-15T00:32:09.303Z,30.70
2018-12-15T00:33:09.320Z,33.00
2018-12-15T00:34:09.345Z,30.10
2018-12-15T00:35:09.367Z,30.70
2018-12-15T00:36:09.392Z,32.40
2018-12-15T00:37:09.419Z,33.20
2018-12-15T00:38:09.442Z,34.20
2018-12-15T00:39:09.464Z,29.90
2018-12-15T00:40:09.489Z,31.60
2018-12-15T00:41:09.515Z,31.90
2018-12-15T00:42:09.545Z,37.30
2018-12-15T00:43:09.561Z,34.00
2018-12-15T00:44:09.585Z,32.00
2018-12-15T00:45:09.611Z,32.60
2018-12-15T00:46:09.634Z,35.90
2018-12-15T00:47:13.782Z,31.80
2018-12-15T00:48:09.682Z,34.80
2018-12-15T00:49:09.706Z,37.20
2018-12-15T00:50:09.730Z,36.00
2018-12-15T00:51:09.755Z,34.00
2018-12-15T00:52:09.778Z,34.60
2018-12-15T00:53:09.803Z,32.40
2018-12-15T00:54:09.831Z,37.50
2018-12-15T00:55:09.850Z,33.90
2018-12-15T00:56:09.875Z,38.20
2018-12-15T00:57:09.901Z,34.60
2018-12-15T00:58:09.925Z,33.00
2018-12-15T00:59:09.946Z,35.40
2018-12-15T01:00:09.971Z,34.10
2018-12-15T01:01:09.998Z,33.10
2018-12-15T01:02:10.020Z,38.60
2018-12-15T01:03:10.043Z,35.90
2018-12-15T01:04:10.068Z,32.60
2018-12-15T01:05:10.091Z,29.30
2018-12-15T01:06:10.117Z,31.40
2018-12-15T01:07:10.140Z,34.70
2018-12-15T01:08:10.164Z,33.70
2018-12-15T01:09:10.189Z,35.20
2018-12-15T01:10:10.214Z,34.60
2018-12-15T01:11:10.236Z,32.90
2018-12-15T01:12:10.261Z,29.20
2018-12-15T01:13:10.287Z,32.60
2018-12-15T01:14:10.310Z,37.00
2018-12-15T01:15:10.332Z,32.70
2018-12-15T01:16:10.356Z,31.70
2018-12-15T01:17:10.380Z,35.20
2018-12-15T01:18:10.405Z,34.50
2018-12-15T01:19:10.430Z,32.90
2018-12-15T01:20:10.455Z,36.70
2018-12-15T01:21:10.477Z,34.00
2018-12-15T01:22:10.501Z,34.10
2018-12-15T01:23:10.524Z,32.40
2018-12-15T01:24:10.552Z,32.90
2018-12-15T01:25:10.573Z,35.80
2018-12-15T01:26:10.597Z,42.20
2018-12-15T01:27:10.620Z,36.10
2018-12-15T01:28:10.645Z,38.90
2018-12-15T01:29:10.668Z,38.20
2018-12-15T01:30:10.718Z,35.60
2018-12-15T01:31:10.717Z,33.70
2018-12-15T01:32:10.741Z,36.10
2018-12-15T01:33:10.765Z,33.50
2018-12-15T01:34:10.790Z,37.90
2018-12-15T01:35:10.812Z,34.10
2018-12-15T01:36:10.838Z,37.20
2018-12-15T01:37:10.862Z,30.90
2018-12-15T01:38:10.924Z,33.50
2018-12-15T01:39:10.909Z,33.80
2018-12-15T01:40:10.934Z,33.70
2018-12-15T01:41:10.957Z,33.70
2018-12-15T01:42:10.982Z,35.10
2018-12-15T01:43:11.007Z,33.30
2018-12-15T01:44:11.029Z,41.80
2018-12-15T01:45:11.056Z,37.40
2018-12-15T01:46:11.078Z,34.20
2018-12-15T01:47:11.105Z,32.90
2018-12-15T01:48:11.126Z,32.90
2018-12-15T01:49:11.150Z,36.60
2018-12-15T01:50:11.176Z,31.70
2018-12-15T01:51:11.197Z,34.50
2018-12-15T01:52:11.222Z,34.10
2018-12-15T01:53:11.247Z,31.00
2018-12-15T01:54:11.273Z,33.70
2018-12-15T01:55:11.294Z,33.20
2018-12-15T01:56:11.319Z,31.50
2018-12-15T01:57:11.345Z,34.50
2018-12-15T01:58:11.370Z,28.90
2018-12-15T01:59:11.391Z,33.80
2018-12-15T02:00:11.417Z,31.20
2018-12-15T02:01:11.443Z,33.60
2018-12-15T02:02:11.466Z,29.40
2018-12-15T02:03:11.488Z,34.50
2018-12-15T02:04:11.513Z,29.30
2018-12-15T02:05:11.537Z,31.20
2018-12-15T02:06:11.561Z,32.30
2018-12-15T02:07:11.589Z,29.70
2018-12-15T02:08:11.609Z,28.50
2018-12-15T02:09:11.635Z,34.70
2018-12-15T02:10:11.660Z,28.70
2018-12-15T02:11:11.683Z,28.90
2018-12-15T02:12:11.707Z,30.50
2018-12-15T02:13:11.732Z,34.40
2018-12-15T02:14:11.755Z,29.20
2018-12-15T02:15:11.780Z,30.90
2018-12-15T02:16:11.803Z,32.70
2018-12-15T02:17:11.828Z,28.70
2018-12-15T02:18:11.853Z,34.50
2018-12-15T02:19:11.876Z,34.00
2018-12-15T02:20:11.901Z,33.30
2018-12-15T02:21:11.925Z,32.50
2018-12-15T02:22:11.950Z,32.50
2018-12-15T02:23:11.973Z,35.50
2018-12-15T02:24:11.997Z,34.10
2018-12-15T02:25:12.022Z,33.80
2018-12-15T02:26:12.047Z,29.90
2018-12-15T02:27:12.070Z,33.30
2018-12-15T02:28:12.096Z,31.90
2018-12-15T02:29:12.119Z,37.60
2018-12-15T02:30:12.149Z,32.80
2018-12-15T02:31:12.167Z,29.60
2018-12-15T02:32:12.190Z,30.80
2018-12-15T02:33:12.216Z,30.30
2018-12-15T02:34:12.242Z,34.40
2018-12-15T02:35:12.265Z,30.90
2018-12-15T02:36:12.291Z,33.60
2018-12-15T02:37:12.315Z,31.70
2018-12-15T02:38:12.337Z,28.80
2018-12-15T02:39:12.361Z,33.50
2018-12-15T02:40:12.386Z,39.40
2018-12-15T02:41:12.411Z,32.80
2018-12-15T02:42:12.436Z,36.20
2018-12-15T02:43:12.459Z,32.20
2018-12-15T02:44:12.484Z,33.10
2018-12-15T02:45:12.507Z,27.70
2018-12-15T02:46:12.532Z,29.10
2018-12-15T02:47:12.555Z,28.60
2018-12-15T02:48:12.582Z,31.80
2018-12-15T02:49:12.604Z,33.30
2018-12-15T02:50:12.629Z,35.00
2018-12-15T02:51:12.653Z,34.10
2018-12-15T02:52:12.678Z,32.90
2018-12-15T02:53:12.701Z,32.90
2018-12-15T02:54:12.727Z,35.20
2018-12-15T02:55:12.752Z,35.90
2018-12-15T02:56:12.774Z,33.60
2018-12-15T02:57:12.798Z,33.50
2018-12-15T02:58:12.823Z,35.70
2018-12-15T02:59:12.847Z,30.80
2018-12-15T03:00:12.872Z,36.80
2018-12-15T03:01:12.903Z,36.90
2018-12-15T03:02:12.920Z,36.40
2018-12-15T03:03:12.944Z,35.60
2018-12-15T03:04:12.973Z,31.60
2018-12-15T03:05:12.992Z,33.20
2018-12-15T03:06:13.018Z,32.20
2018-12-15T03:07:13.041Z,30.40
2018-12-15T03:08:13.069Z,31.00
2018-12-15T03:09:13.093Z,31.80
2018-12-15T03:10:13.115Z,39.30
2018-12-15T03:11:13.138Z,29.90
2018-12-15T03:12:13.164Z,30.20
2018-12-15T03:13:13.189Z,34.60
2018-12-15T03:14:13.213Z,33.70
2018-12-15T03:15:13.235Z,35.20
2018-12-15T03:16:13.260Z,30.70
2018-12-15T03:17:13.284Z,33.80
2018-12-15T03:18:13.310Z,30.90
2018-12-15T03:19:13.384Z,33.60
2018-12-15T03:20:13.359Z,31.30
2018-12-15T03:21:13.382Z,32.60
2018-12-15T03:22:13.405Z,40.20
2018-12-15T03:23:13.431Z,35.50
2018-12-15T03:24:13.456Z,33.30
2018-12-15T03:25:13.482Z,34.30
2018-12-15T03:26:13.503Z,36.50
2018-12-15T03:27:13.528Z,34.50
2018-12-15T03:28:13.554Z,34.80
2018-12-15T03:29:13.577Z,34.50
2018-12-15T03:30:13.603Z,34.70
2018-12-15T03:31:13.625Z,32.70
2018-12-15T03:32:13.651Z,39.90
2018-12-15T03:33:13.674Z,35.20
2018-12-15T03:34:13.698Z,33.10
2018-12-15T03:35:13.721Z,32.70
2018-12-15T03:36:13.745Z,36.00
2018-12-15T03:37:13.773Z,32.90
2018-12-15T03:38:13.794Z,34.80
2018-12-15T03:39:13.817Z,38.30
2018-12-15T03:40:13.845Z,38.20
2018-12-15T03:41:13.866Z,35.40
2018-12-15T03:42:13.892Z,39.60
2018-12-15T03:43:13.930Z,37.90
2018-12-15T03:44:13.939Z,43.40
2018-12-15T03:45:26.702Z,41.60
2018-12-15T03:46:13.988Z,35.20
2018-12-15T03:47:14.011Z,40.10
2018-12-15T03:48:14.038Z,33.70
2018-12-15T03:49:14.062Z,40.50
2018-12-15T03:50:14.085Z,42.00
2018-12-15T03:51:14.110Z,40.30
2018-12-15T03:52:14.133Z,37.40
2018-12-15T03:53:14.159Z,38.80
2018-12-15T03:54:14.182Z,38.40
2018-12-15T03:55:14.206Z,40.10
2018-12-15T03:56:14.230Z,43.90
2018-12-15T03:57:14.255Z,40.90
2018-12-15T03:58:14.279Z,40.20
2018-12-15T03:59:14.304Z,41.80
2018-12-15T04:00:14.326Z,42.60
2018-12-15T04:01:14.352Z,39.30
2018-12-15T04:02:14.375Z,41.20
2018-12-15T04:03:14.399Z,39.90
2018-12-15T04:04:14.423Z,37.80
2018-12-15T04:05:14.449Z,37.20
2018-12-15T04:06:14.472Z,37.20
2018-12-15T04:07:14.499Z,36.60
2018-12-15T04:08:14.519Z,40.70
2018-12-15T04:09:14.544Z,39.60
2018-12-15T04:10:14.568Z,38.00
2018-12-15T04:11:14.600Z,36.40
2018-12-15T04:12:14.617Z,39.70
2018-12-15T04:13:14.642Z,39.50
2018-12-15T04:14:14.667Z,38.30
2018-12-15T04:15:14.689Z,40.70
2018-12-15T04:16:14.715Z,39.00
2018-12-15T04:17:14.737Z,42.60
2018-12-15T04:18:14.762Z,43.60
2018-12-15T04:19:14.786Z,38.00
2018-12-15T04:20:14.808Z,40.10
2018-12-15T04:21:14.834Z,40.00
2018-12-15T04:22:14.861Z,40.00
2018-12-15T04:23:14.881Z,37.10
2018-12-15T04:24:14.906Z,41.10
2018-12-15T04:25:14.930Z,40.50
2018-12-15T04:26:14.953Z,43.40
2018-12-15T04:27:14.977Z,41.10
2018-12-15T04:28:15.003Z,35.50
2018-12-15T04:29:15.026Z,34.90
2018-12-15T04:30:15.052Z,40.60
2018-12-15T04:31:15.079Z,38.50
2018-12-15T04:32:15.099Z,38.80
2018-12-15T04:33:15.122Z,43.10
2018-12-15T04:34:15.150Z,40.50
2018-12-15T04:35:15.171Z,41.40
2018-12-15T04:36:15.197Z,42.20
2018-12-15T04:37:15.219Z,36.10
2018-12-15T04:38:15.243Z,40.80
2018-12-15T04:39:15.278Z,37.70
2018-12-15T04:40:15.291Z,39.50
2018-12-15T04:41:15.316Z,38.60
2018-12-15T04:42:15.340Z,39.60
2018-12-15T04:43:15.364Z,36.80
2018-12-15T04:44:15.387Z,39.20
2018-12-15T04:45:15.416Z,35.80
2018-12-15T04:46:15.436Z,39.90
2018-12-15T04:47:15.462Z,37.00
2018-12-15T04:48:15.494Z,40.90
2018-12-15T04:49:15.509Z,37.80
2018-12-15T04:50:15.532Z,35.20
2018-12-15T04:51:15.562Z,37.10
2018-12-15T04:52:15.581Z,37.10
2018-12-15T04:53:15.606Z,38.90
2018-12-15T04:54:15.640Z,37.00
2018-12-15T04:55:15.653Z,38.00
2018-12-15T04:56:15.685Z,35.50
2018-12-15T04:57:15.703Z,32.80
2018-12-15T04:58:15.727Z,32.10
2018-12-15T04:59:15.751Z,40.60
2018-12-15T05:00:15.774Z,41.00
2018-12-15T05:01:15.800Z,34.90
2018-12-15T05:02:15.824Z,37.80
2018-12-15T05:03:15.849Z,34.20
2018-12-15T05:04:15.873Z,35.80
2018-12-15T05:05:15.898Z,31.20
2018-12-15T05:06:15.922Z,36.00
2018-12-15T05:07:15.945Z,35.90
2018-12-15T05:08:15.969Z,33.40
2018-12-15T05:09:15.993Z,31.60
2018-12-15T05:10:16.018Z,33.70
2018-12-15T05:11:16.044Z,37.80
2018-12-15T05:12:19.105Z,40.30
2018-12-15T05:13:16.093Z,34.10
2018-12-15T05:14:16.120Z,34.30
2018-12-15T05:15:16.138Z,36.20
2018-12-15T05:16:16.166Z,35.20
2018-12-15T05:17:16.188Z,34.90
2018-12-15T05:18:18.354Z,32.30
2018-12-15T05:19:16.236Z,32.60
2018-12-15T05:20:16.260Z,35.00
2018-12-15T05:21:16.286Z,35.80
2018-12-15T05:22:16.311Z,35.10
2018-12-15T05:23:16.334Z,38.80
2018-12-15T05:24:16.357Z,36.40
2018-12-15T05:25:16.532Z,30.50
2018-12-15T05:26:16.406Z,34.40
2018-12-15T05:27:16.432Z,34.90
2018-12-15T05:28:16.454Z,33.70
2018-12-15T05:29:16.478Z,40.60
2018-12-15T05:30:16.505Z,35.30
2018-12-15T05:31:16.537Z,37.50
2018-12-15T05:32:16.550Z,35.40
2018-12-15T05:33:16.575Z,35.90
2018-12-15T05:34:16.600Z,39.50
2018-12-15T05:35:16.623Z,36.80
2018-12-15T05:36:16.648Z,36.70
2018-12-15T05:37:16.674Z,36.10
2018-12-15T05:38:16.697Z,38.70
2018-12-15T05:39:16.720Z,40.90
2018-12-15T05:40:16.745Z,37.30
2018-12-15T05:41:16.769Z,37.00
2018-12-15T05:42:16.797Z,42.70
2018-12-15T05:43:16.817Z,35.20
2018-12-15T05:44:16.841Z,40.20
2018-12-15T05:45:16.916Z,36.30
2018-12-15T05:46:16.890Z,36.70
2018-12-15T05:47:16.914Z,36.30
2018-12-15T05:48:16.940Z,41.80
2018-12-15T05:49:16.963Z,40.50
2018-12-15T05:50:16.986Z,38.50
2018-12-15T05:51:17.065Z,37.40
2018-12-15T05:52:17.034Z,42.70
2018-12-15T05:53:17.059Z,37.70
2018-12-15T05:54:17.084Z,44.60
2018-12-15T05:55:17.105Z,59.10
2018-12-15T05:56:17.131Z,54.10
2018-12-15T05:57:17.158Z,45.60
2018-12-15T05:58:17.180Z,40.70
2018-12-15T05:59:17.203Z,36.50
2018-12-15T06:00:17.228Z,33.80
2018-12-15T06:01:17.255Z,39.50
2018-12-15T06:02:17.275Z,40.70
2018-12-15T06:03:17.300Z,38.80
2018-12-15T06:04:17.324Z,36.80
2018-12-15T06:05:17.348Z,38.90
2018-12-15T06:06:17.373Z,34.50
2018-12-15T06:07:17.397Z,38.60
2018-12-15T06:08:17.420Z,35.30
2018-12-15T06:09:17.445Z,40.40
2018-12-15T06:10:17.469Z,36.70
2018-12-15T06:11:17.494Z,39.60
2018-12-15T06:12:17.516Z,38.20
2018-12-15T06:13:17.541Z,37.70
2018-12-15T06:14:17.563Z,39.30
2018-12-15T06:15:17.589Z,39.00
2018-12-15T06:16:17.613Z,35.70
2018-12-15T06:17:17.638Z,39.10
2018-12-15T06:18:17.662Z,33.70
2018-12-15T06:19:17.687Z,34.50
2018-12-15T06:20:17.708Z,34.30
2018-12-15T06:21:17.734Z,34.40
2018-12-15T06:22:17.758Z,32.60
2018-12-15T06:23:17.782Z,31.60
2018-12-15T06:24:17.804Z,32.60
2018-12-15T06:25:17.834Z,29.60
2018-12-15T06:26:17.854Z,30.70
2018-12-15T06:27:17.876Z,33.30
2018-12-15T06:28:17.901Z,33.00
2018-12-15T06:29:17.926Z,33.60
2018-12-15T06:30:17.957Z,33.20
2018-12-15T06:31:17.976Z,34.80
2018-12-15T06:32:17.998Z,33.10
2018-12-15T06:33:18.023Z,30.00
2018-12-15T06:34:18.045Z,30.30
2018-12-15T06:35:18.068Z,30.60
2018-12-15T06:36:18.092Z,28.40
2018-12-15T06:37:18.117Z,32.10
2018-12-15T06:38:18.140Z,30.10
2018-12-15T06:39:18.164Z,34.80
2018-12-15T06:40:18.189Z,32.90
2018-12-15T06:41:18.212Z,34.40
2018-12-15T06:42:18.236Z,37.60
2018-12-15T06:43:18.259Z,32.80
2018-12-15T06:44:18.284Z,28.70
2018-12-15T06:45:18.307Z,34.60
2018-12-15T06:46:18.333Z,32.30
2018-12-15T06:47:18.355Z,34.00
2018-12-15T06:48:18.379Z,33.60
2018-12-15T06:49:18.404Z,34.90
2018-12-15T06:50:18.429Z,39.70
2018-12-15T06:51:18.456Z,37.60
2018-12-15T06:52:18.474Z,40.40
2018-12-15T06:53:18.501Z,36.50
2018-12-15T06:54:18.523Z,38.90
2018-12-15T06:55:18.546Z,38.40
2018-12-15T06:56:18.571Z,33.80
2018-12-15T06:57:18.596Z,38.20
2018-12-15T06:58:18.619Z,34.10
2018-12-15T06:59:18.643Z,36.20
2018-12-15T07:00:18.666Z,38.40
2018-12-15T07:01:18.691Z,41.70
2018-12-15T07:02:18.717Z,40.00
2018-12-15T07:03:18.738Z,39.40
2018-12-15T07:04:18.761Z,36.90
2018-12-15T07:05:18.786Z,36.90
2018-12-15T07:06:18.811Z,33.70
2018-12-15T07:07:18.833Z,35.30
2018-12-15T07:08:18.857Z,38.30
2018-12-15T07:09:18.882Z,31.00
2018-12-15T07:10:18.905Z,31.90
2018-12-15T07:11:18.929Z,27.80
2018-12-15T07:12:18.954Z,32.20
2018-12-15T07:13:18.977Z,34.70
2018-12-15T07:14:19.001Z,28.10
2018-12-15T07:15:19.024Z,32.30
2018-12-15T07:16:19.048Z,30.60
2018-12-15T07:17:19.073Z,30.20
2018-12-15T07:18:19.097Z,32.20
2018-12-15T07:19:19.121Z,29.70
2018-12-15T07:20:19.143Z,30.30
2018-12-15T07:21:19.168Z,31.50
2018-12-15T07:22:19.195Z,31.50
2018-12-15T07:23:19.215Z,27.70
2018-12-15T07:24:19.239Z,32.30
2018-12-15T07:25:19.264Z,33.80
2018-12-15T07:26:19.288Z,29.70
2018-12-15T07:27:19.313Z,33.90
2018-12-15T07:28:19.335Z,33.30
2018-12-15T07:29:19.361Z,31.20
2018-12-15T07:30:19.384Z,27.70
2018-12-15T07:31:19.405Z,32.40
2018-12-15T07:32:19.430Z,31.70
2018-12-15T07:33:19.457Z,29.60
2018-12-15T07:34:19.483Z,28.40
2018-12-15T07:35:19.512Z,32.00
2018-12-15T07:36:19.619Z,29.50
2018-12-15T07:37:19.551Z,30.40
2018-12-15T07:38:19.573Z,30.20
2018-12-15T07:39:19.597Z,30.70
2018-12-15T07:40:19.622Z,33.20
2018-12-15T07:41:19.649Z,30.90
2018-12-15T07:42:19.668Z,37.70
2018-12-15T07:43:19.699Z,34.40
2018-12-15T07:44:19.714Z,33.80
2018-12-15T07:45:19.739Z,32.70
2018-12-15T07:46:19.763Z,30.80
2018-12-15T07:47:19.794Z,31.00
2018-12-15T07:48:19.810Z,31.60
2018-12-15T07:49:19.836Z,28.40
2018-12-15T07:50:19.858Z,32.30
2018-12-15T07:51:19.881Z,32.90
2018-12-15T07:52:19.905Z,32.70
2018-12-15T07:53:19.930Z,29.30
2018-12-15T07:54:19.952Z,30.50
2018-12-15T07:55:19.977Z,33.70
2018-12-15T07:56:20.003Z,30.00
2018-12-15T07:57:20.025Z,31.40
2018-12-15T07:58:20.047Z,33.80
2018-12-15T07:59:20.071Z,36.00
2018-12-15T08:00:20.102Z,40.20
2018-12-15T08:01:20.116Z,37.30
2018-12-15T08:02:20.143Z,32.50
2018-12-15T08:03:20.164Z,30.60
2018-12-15T08:04:20.189Z,30.50
2018-12-15T08:05:20.214Z,30.60
2018-12-15T08:06:20.236Z,38.00
2018-12-15T08:07:20.265Z,31.20
2018-12-15T08:08:20.284Z,35.60
2018-12-15T08:09:20.375Z,38.20
2018-12-15T08:10:20.332Z,36.90
2018-12-15T08:11:20.422Z,34.80
2018-12-15T08:12:20.379Z,37.00
2018-12-15T08:13:20.402Z,32.00
2018-12-15T08:14:20.426Z,36.10
2018-12-15T08:15:20.451Z,36.10
2018-12-15T08:16:20.473Z,32.80
2018-12-15T08:17:20.498Z,32.80
2018-12-15T08:18:20.525Z,34.80
2018-12-15T08:19:20.546Z,35.00
2018-12-15T08:20:20.569Z,36.00
2018-12-15T08:21:20.592Z,34.70
2018-12-15T08:22:26.051Z,29.50
2018-12-15T08:23:20.639Z,30.60
2018-12-15T08:24:20.663Z,28.30
2018-12-15T08:25:20.688Z,28.90
2018-12-15T08:26:20.711Z,28.30
2018-12-15T08:27:20.734Z,27.00
2018-12-15T08:28:20.757Z,27.10
2018-12-15T08:29:20.782Z,26.40
2018-12-15T08:30:20.808Z,32.00
2018-12-15T08:31:20.829Z,32.60
2018-12-15T08:32:20.854Z,29.60
2018-12-15T08:33:20.889Z,27.70
2018-12-15T08:34:20.900Z,31.80
2018-12-15T08:35:20.923Z,30.90
2018-12-15T08:36:20.947Z,31.00
2018-12-15T08:37:20.972Z,29.30
2018-12-15T08:38:20.995Z,35.70
2018-12-15T08:39:21.021Z,31.20
2018-12-15T08:40:21.043Z,31.00
2018-12-15T08:41:21.068Z,33.10
2018-12-15T08:42:21.091Z,35.90
2018-12-15T08:43:21.115Z,34.10
2018-12-15T08:44:21.139Z,36.60
2018-12-15T08:45:21.163Z,35.00
2018-12-15T08:46:22.692Z,31.20
2018-12-15T08:47:21.209Z,31.40
2018-12-15T08:48:21.234Z,32.60
2018-12-15T08:49:21.258Z,33.20
2018-12-15T08:50:21.282Z,32.20
2018-12-15T08:51:21.305Z,33.70
2018-12-15T08:52:21.331Z,31.30
2018-12-15T08:53:21.354Z,34.30
2018-12-15T08:54:21.377Z,29.00
2018-12-15T08:55:21.401Z,32.90
2018-12-15T08:56:21.426Z,30.90
2018-12-15T08:57:21.451Z,32.60
2018-12-15T08:58:21.473Z,30.00
2018-12-15T08:59:21.497Z,31.10
2018-12-15T09:00:21.521Z,29.10
2018-12-15T09:01:21.545Z,27.00
2018-12-15T09:02:21.570Z,29.00
2018-12-15T09:03:21.595Z,28.00
2018-12-15T09:04:21.617Z,29.30
2018-12-15T09:05:21.643Z,27.00
2018-12-15T09:06:21.669Z,28.30
2018-12-15T09:07:21.690Z,29.80
2018-12-15T09:08:21.715Z,28.80
2018-12-15T09:09:21.738Z,33.60
2018-12-15T09:10:21.763Z,32.00
2018-12-15T09:11:21.787Z,30.40
2018-12-15T09:12:21.810Z,33.70
2018-12-15T09:13:21.834Z,30.50
2018-12-15T09:14:21.859Z,30.10
2018-12-15T09:15:21.882Z,29.60
2018-12-15T09:16:26.377Z,31.60
2018-12-15T09:17:21.930Z,30.70
2018-12-15T09:18:21.954Z,26.40
2018-12-15T09:19:21.979Z,30.60
2018-12-15T09:20:22.004Z,29.50
2018-12-15T09:21:22.026Z,30.10
2018-12-15T09:22:22.051Z,27.60
2018-12-15T09:23:22.073Z,31.20
2018-12-15T09:24:22.099Z,27.20
2018-12-15T09:25:22.123Z,28.40
2018-12-15T09:26:22.147Z,31.50
2018-12-15T09:27:22.172Z,31.00
2018-12-15T09:28:22.195Z,29.40
2018-12-15T09:29:22.218Z,28.70
2018-12-15T09:30:22.244Z,30.30
2018-12-15T09:31:22.269Z,31.60
2018-12-15T09:32:22.291Z,36.60
2018-12-15T09:33:22.314Z,33.40
2018-12-15T09:34:22.340Z,33.70
2018-12-15T09:35:22.363Z,35.00
2018-12-15T09:36:22.387Z,32.30
2018-12-15T09:37:22.411Z,31.90
2018-12-15T09:38:22.435Z,31.10
2018-12-15T09:39:22.458Z,34.00
2018-12-15T09:40:22.484Z,33.10
2018-12-15T09:41:22.507Z,33.10
2018-12-15T09:42:22.532Z,31.30
2018-12-15T09:43:22.555Z,29.60
2018-12-15T09:44:22.580Z,28.00
2018-12-15T09:45:22.603Z,31.80
2018-12-15T09:46:22.628Z,30.00
2018-12-15T09:47:22.653Z,32.50
2018-12-15T09:48:22.675Z,27.70
2018-12-15T09:49:22.702Z,28.40
2018-12-15T09:50:25.729Z,29.00
2018-12-15T09:51:22.754Z,28.00
2018-12-15T09:52:22.774Z,29.60
2018-12-15T09:53:22.798Z,28.60
2018-12-15T09:54:22.825Z,27.00
2018-12-15T09:55:22.847Z,26.80
2018-12-15T09:56:22.870Z,28.50
2018-12-15T09:57:22.896Z,25.20
2018-12-15T09:58:22.920Z,25.40
2018-12-15T09:59:22.943Z,31.20
2018-12-15T10:00:22.970Z,23.60
2018-12-15T10:01:22.995Z,27.90
2018-12-15T10:02:23.019Z,28.20
2018-12-15T10:03:23.041Z,25.70
2018-12-15T10:04:23.066Z,28.50
2018-12-15T10:05:23.092Z,26.50
2018-12-15T10:06:23.119Z,27.50
2018-12-15T10:07:23.141Z,27.30
2018-12-15T10:08:23.164Z,30.20
2018-12-15T10:09:23.191Z,28.00
2018-12-15T10:10:23.215Z,28.60
2018-12-15T10:11:23.239Z,30.50
2018-12-15T10:12:23.266Z,34.40
2018-12-15T10:13:23.289Z,29.90
2018-12-15T10:14:23.315Z,35.60
2018-12-15T10:15:23.339Z,34.00
2018-12-15T10:16:23.364Z,29.30
2018-12-15T10:17:23.392Z,34.00
2018-12-15T10:18:23.412Z,31.60
2018-12-15T10:19:24.469Z,36.20
2018-12-15T10:20:23.463Z,27.60
2018-12-15T10:21:23.486Z,32.80
2018-12-15T10:22:23.513Z,29.90
2018-12-15T10:23:23.538Z,30.30
2018-12-15T10:24:23.563Z,32.50
2018-12-15T10:25:23.588Z,31.40
2018-12-15T10:26:23.689Z,30.90
2018-12-15T10:27:23.637Z,29.10
2018-12-15T10:28:23.666Z,30.90
2018-12-15T10:29:23.691Z,32.60
2018-12-15T10:30:23.714Z,29.70
2018-12-15T10:31:23.739Z,36.80
2018-12-15T10:32:23.764Z,28.70
2018-12-15T10:33:23.789Z,29.00
2018-12-15T10:34:23.814Z,32.00
2018-12-15T10:35:23.838Z,29.70
2018-12-15T10:36:23.864Z,29.90
2018-12-15T10:37:23.891Z,28.90
2018-12-15T10:38:23.915Z,30.40
2018-12-15T10:39:23.939Z,29.20
2018-12-15T10:40:23.966Z,29.10
2018-12-15T10:41:23.992Z,30.00
2018-12-15T10:42:24.016Z,29.20
2018-12-15T10:43:24.039Z,28.20
2018-12-15T10:44:24.065Z,37.80
2018-12-15T10:45:24.089Z,28.90
2018-12-15T10:46:24.118Z,27.90
2018-12-15T10:47:24.143Z,28.80
2018-12-15T10:48:24.166Z,29.20
2018-12-15T10:49:30.530Z,32.00
2018-12-15T10:50:24.218Z,31.30
2018-12-15T10:51:24.243Z,29.80
2018-12-15T10:52:24.269Z,28.60
2018-12-15T10:53:24.295Z,29.10
2018-12-15T10:54:24.319Z,28.80
2018-12-15T10:55:24.345Z,29.00
2018-12-15T10:56:24.373Z,28.30
2018-12-15T10:57:24.397Z,28.40
2018-12-15T10:58:24.422Z,30.50
2018-12-15T10:59:24.449Z,33.90
2018-12-15T11:00:24.475Z,30.40
2018-12-15T11:01:24.504Z,29.40
2018-12-15T11:02:24.528Z,30.10
2018-12-15T11:03:24.554Z,30.70
2018-12-15T11:04:24.581Z,24.30
2018-12-15T11:05:24.607Z,26.90
2018-12-15T11:06:24.634Z,31.20
2018-12-15T11:07:24.661Z,27.10
2018-12-15T11:08:24.688Z,30.20
2018-12-15T11:09:24.721Z,29.40
2018-12-15T11:10:24.739Z,25.70
2018-12-15T11:11:24.766Z,29.70
2018-12-15T11:12:24.794Z,27.80
2018-12-15T11:13:24.870Z,27.90
2018-12-15T11:14:24.849Z,29.00
2018-12-15T11:15:24.875Z,26.00
2018-12-15T11:16:24.901Z,28.80
2018-12-15T11:17:24.929Z,32.10
2018-12-15T11:18:24.959Z,28.70
2018-12-15T11:19:24.986Z,26.60
2018-12-15T11:20:25.012Z,28.10
2018-12-15T11:21:25.039Z,27.10
2018-12-15T11:22:25.066Z,30.00
2018-12-15T11:23:25.093Z,28.50
2018-12-15T11:24:25.121Z,27.70
2018-12-15T11:25:25.151Z,27.20
2018-12-15T11:26:25.179Z,27.60
2018-12-15T11:27:25.208Z,30.30
2018-12-15T11:28:25.235Z,29.70
2018-12-15T11:29:25.265Z,31.00
2018-12-15T11:30:25.293Z,25.10
2018-12-15T11:31:25.321Z,27.40
2018-12-15T11:32:25.351Z,26.50
2018-12-15T11:33:25.379Z,26.60
2018-12-15T11:34:25.409Z,27.50
2018-12-15T11:35:25.436Z,29.50
2018-12-15T11:36:25.518Z,29.20
2018-12-15T11:37:25.494Z,25.80
2018-12-15T11:38:25.573Z,25.40
2018-12-15T11:39:25.553Z,29.60
2018-12-15T11:40:25.581Z,27.80
2018-12-15T11:41:25.611Z,26.00
2018-12-15T11:42:25.641Z,26.40
2018-12-15T11:43:25.670Z,25.00
2018-12-15T11:44:25.700Z,26.00
2018-12-15T11:45:25.730Z,26.00
2018-12-15T11:46:25.762Z,24.60
2018-12-15T11:47:25.792Z,25.20
2018-12-15T11:48:25.821Z,28.40
2018-12-15T11:49:25.853Z,27.10
2018-12-15T11:50:25.884Z,27.50
2018-12-15T11:51:25.914Z,27.40
2018-12-15T11:52:25.946Z,24.30
2018-12-15T11:53:25.977Z,24.50
2018-12-15T11:54:26.012Z,27.20
2018-12-15T11:55:26.045Z,25.80
2018-12-15T11:56:26.075Z,23.80
2018-12-15T11:57:26.110Z,25.80
2018-12-15T11:58:26.142Z,24.90
2018-12-15T11:59:26.176Z,24.50
2018-12-15T12:00:26.209Z,24.20
2018-12-15T12:01:26.243Z,24.40
2018-12-15T12:02:31.686Z,23.50
2018-12-15T12:03:26.314Z,27.70
2018-12-15T12:04:26.346Z,25.00
2018-12-15T12:05:26.383Z,27.20
2018-12-15T12:06:26.419Z,26.50
2018-12-15T12:07:26.453Z,29.10
2018-12-15T12:08:26.487Z,25.40
2018-12-15T12:09:26.526Z,23.60
2018-12-15T12:10:26.565Z,24.70
2018-12-15T12:11:26.595Z,27.70
2018-12-15T12:12:26.630Z,28.30
2018-12-15T12:13:26.668Z,23.70
2018-12-15T12:14:26.710Z,23.30
2018-12-15T12:15:26.743Z,26.50
2018-12-15T12:16:26.776Z,24.10
2018-12-15T12:17:26.825Z,24.10
2018-12-15T12:18:26.850Z,28.90
2018-12-15T12:19:26.886Z,23.40
2018-12-15T12:20:26.922Z,25.40
2018-12-15T12:21:26.962Z,25.80
2018-12-15T12:22:26.997Z,26.00
2018-12-15T12:23:27.035Z,23.60
2018-12-15T12:24:27.072Z,23.50
2018-12-15T12:25:27.109Z,25.70
2018-12-15T12:26:27.147Z,25.50
2018-12-15T12:27:27.184Z,25.90
2018-12-15T12:28:27.221Z,27.40
2018-12-15T12:29:27.259Z,23.70
2018-12-15T12:30:27.297Z,23.70
2018-12-15T12:31:27.332Z,23.90
2018-12-15T12:32:27.370Z,25.20
2018-12-15T12:33:27.408Z,24.20
2018-12-15T12:34:27.443Z,25.10
2018-12-15T12:35:27.481Z,26.00
2018-12-15T12:36:27.515Z,27.80
2018-12-15T12:37:27.552Z,31.90
2018-12-15T12:38:27.587Z,28.60
2018-12-15T12:39:27.621Z,27.00
2018-12-15T12:40:27.656Z,30.00
2018-12-15T12:41:27.691Z,29.60
2018-12-15T12:42:27.727Z,33.80
2018-12-15T12:43:27.757Z,28.10
2018-12-15T12:44:27.791Z,30.40
2018-12-15T12:45:27.828Z,32.20
2018-12-15T12:46:27.856Z,31.60
2018-12-15T12:47:27.892Z,31.10
2018-12-15T12:48:27.921Z,34.70
2018-12-15T12:49:27.953Z,29.10
2018-12-15T12:50:27.984Z,31.90
2018-12-15T12:51:28.015Z,35.00
2018-12-15T12:52:28.046Z,33.40